createdAt,value
2023-04-17T00:01:16.168Z,9.70
2023-04-17T00:03:44.766Z,9.60
2023-04-17T00:06:14.074Z,9.60
2023-04-17T00:08:43.449Z,9.60
2023-04-17T00:11:11.366Z,9.60
2023-04-17T00:13:39.212Z,9.60
2023-04-17T00:16:10.704Z,9.60
2023-04-17T00:18:38.672Z,9.60
2023-04-17T00:21:06.794Z,9.60
2023-04-17T00:23:34.722Z,9.60
2023-04-17T00:26:02.565Z,9.60
2023-04-17T00:28:30.464Z,9.50
2023-04-17T00:30:58.882Z,9.50
2023-04-17T00:33:28.156Z,9.50
2023-04-17T00:35:55.958Z,9.50
2023-04-17T00:38:23.868Z,9.60
2023-04-17T00:40:51.778Z,9.50
2023-04-17T00:43:19.776Z,9.50
2023-04-17T00:45:48.719Z,9.60
2023-04-17T00:48:17.914Z,9.50
2023-04-17T00:50:47.393Z,9.50
2023-04-17T00:53:15.718Z,9.50
2023-04-17T00:55:45.455Z,9.50
2023-04-17T00:58:13.375Z,9.50
2023-04-17T01:00:41.270Z,9.50
2023-04-17T01:03:09.430Z,9.50
2023-04-17T01:05:38.307Z,9.40
2023-04-17T01:08:07.756Z,9.50
2023-04-17T01:10:35.817Z,9.40
2023-04-17T01:13:04.535Z,9.40
2023-04-17T01:15:32.405Z,9.40
2023-04-17T01:18:00.647Z,9.40
2023-04-17T01:20:31.074Z,9.40
2023-04-17T01:22:59.189Z,9.40
2023-04-17T01:25:29.256Z,9.40
2023-04-17T01:27:57.360Z,9.40
2023-04-17T01:30:25.695Z,9.40
2023-04-17T01:32:55.051Z,9.40
2023-04-17T01:35:23.527Z,9.40
2023-04-17T01:37:52.162Z,9.40
2023-04-17T01:40:19.988Z,9.40
2023-04-17T01:42:49.317Z,9.40
2023-04-17T01:45:17.211Z,9.40
2023-04-17T01:47:45.397Z,9.40
2023-04-17T01:50:14.258Z,9.40
2023-04-17T01:52:42.124Z,9.40
2023-04-17T01:55:11.071Z,9.40
2023-04-17T01:57:39.004Z,9.40
2023-04-17T02:00:11.261Z,9.30
2023-04-17T02:02:39.250Z,9.30
2023-04-17T02:05:08.091Z,9.40
2023-04-17T02:07:36.097Z,9.40
2023-04-17T02:10:04.028Z,9.30
2023-04-17T02:12:31.849Z,9.30
2023-04-17T02:15:01.246Z,9.30
2023-04-17T02:17:30.691Z,9.30
2023-04-17T02:19:58.778Z,9.30
2023-04-17T02:22:26.704Z,9.30
2023-04-17T02:24:54.528Z,9.30
2023-04-17T02:27:22.559Z,9.30
2023-04-17T02:29:50.568Z,9.30
2023-04-17T02:32:18.637Z,9.30
2023-04-17T02:34:47.926Z,9.30
2023-04-17T02:37:15.758Z,9.30
2023-04-17T02:39:43.608Z,9.40
2023-04-17T02:42:12.896Z,9.30
2023-04-17T02:44:40.846Z,9.30
2023-04-17T02:47:08.762Z,9.30
2023-04-17T02:49:36.604Z,9.30
2023-04-17T02:52:06.421Z,9.30
2023-04-17T02:54:34.507Z,9.30
2023-04-17T02:57:03.056Z,9.30
2023-04-17T02:59:30.959Z,9.30
2023-04-17T03:01:59.713Z,9.30
2023-04-17T03:04:28.620Z,9.40
2023-04-17T03:06:56.621Z,9.30
2023-04-17T03:09:26.146Z,9.30
2023-04-17T03:11:54.046Z,9.30
2023-04-17T03:14:21.912Z,9.30
2023-04-17T03:16:49.817Z,9.30
2023-04-17T03:19:17.728Z,9.30
2023-04-17T03:21:45.721Z,9.30
2023-04-17T03:24:13.716Z,9.30
2023-04-17T03:26:42.913Z,9.40
2023-04-17T03:29:11.106Z,9.30
2023-04-17T03:31:39.293Z,9.30
2023-04-17T03:34:07.124Z,9.30
2023-04-17T03:36:35.376Z,9.30
2023-04-17T03:39:03.328Z,9.30
2023-04-17T03:41:31.293Z,9.30
2023-04-17T03:44:00.778Z,9.20
2023-04-17T03:46:28.672Z,9.20
2023-04-17T03:48:56.608Z,9.20
2023-04-17T03:51:24.722Z,9.20
2023-04-17T03:53:52.591Z,9.20
2023-04-17T03:56:20.483Z,9.20
2023-04-17T03:58:48.337Z,9.20
2023-04-17T04:01:17.661Z,9.20
2023-04-17T04:03:46.201Z,9.20
2023-04-17T04:06:14.307Z,9.20
2023-04-17T04:08:42.186Z,9.30
2023-04-17T04:11:10.010Z,9.20
2023-04-17T04:13:37.925Z,9.20
2023-04-17T04:16:06.812Z,9.20
2023-04-17T04:18:36.149Z,9.20
2023-04-17T04:21:04.178Z,9.20
2023-04-17T04:23:32.023Z,9.20
2023-04-17T04:26:01.872Z,9.20
2023-04-17T04:28:30.175Z,9.20
2023-04-17T04:30:58.738Z,9.20
2023-04-17T04:33:27.654Z,9.20
2023-04-17T04:36:00.917Z,9.20
2023-04-17T04:38:32.426Z,9.20
2023-04-17T04:41:06.094Z,9.10
2023-04-17T04:43:34.891Z,9.10
2023-04-17T04:46:02.790Z,9.10
2023-04-17T04:48:30.723Z,9.10
2023-04-17T04:51:00.041Z,9.00
2023-04-17T04:53:28.053Z,9.00
2023-04-17T04:55:55.952Z,9.00
2023-04-17T04:58:23.925Z,9.00
2023-04-17T05:00:51.866Z,9.10
2023-04-17T05:03:20.050Z,9.00
2023-04-17T05:05:48.205Z,9.00
2023-04-17T05:08:17.484Z,9.10
2023-04-17T05:10:46.116Z,9.10
2023-04-17T05:13:13.972Z,9.10
2023-04-17T05:15:42.406Z,9.10
2023-04-17T05:18:10.439Z,9.10
2023-04-17T05:20:38.657Z,9.10
2023-04-17T05:23:06.611Z,9.20
2023-04-17T05:25:35.915Z,9.20
2023-04-17T05:28:03.741Z,9.20
2023-04-17T05:30:31.547Z,9.20
2023-04-17T05:33:00.873Z,9.20
2023-04-17T05:35:29.087Z,9.20
2023-04-17T05:37:57.032Z,9.20
2023-04-17T05:40:24.894Z,9.30
2023-04-17T05:42:54.140Z,9.20
2023-04-17T05:45:24.157Z,9.30
2023-04-17T05:47:53.388Z,9.30
2023-04-17T05:50:21.484Z,9.30
2023-04-17T05:52:49.609Z,9.40
2023-04-17T05:55:17.709Z,9.40
2023-04-17T05:57:45.640Z,9.40
2023-04-17T06:00:16.983Z,9.50
2023-04-17T06:02:45.256Z,9.50
2023-04-17T06:05:13.556Z,9.60
2023-04-17T06:07:41.548Z,9.60
2023-04-17T06:10:10.408Z,9.60
2023-04-17T06:12:38.687Z,9.60
2023-04-17T06:15:09.038Z,9.70
2023-04-17T06:17:39.074Z,9.80
2023-04-17T06:20:10.664Z,9.80
2023-04-17T06:22:38.724Z,9.90
2023-04-17T06:25:08.073Z,9.90
2023-04-17T06:27:36.955Z,10.00
2023-04-17T06:30:06.061Z,10.00
2023-04-17T06:32:33.978Z,10.10
2023-04-17T06:35:03.573Z,10.20
2023-04-17T06:37:31.456Z,10.30
2023-04-17T06:39:59.286Z,10.40
2023-04-17T06:42:28.051Z,10.60
2023-04-17T06:44:56.247Z,10.80
2023-04-17T06:47:24.184Z,11.00
2023-04-17T06:49:52.157Z,11.30
2023-04-17T06:52:22.133Z,11.50
2023-04-17T06:54:50.052Z,11.60
2023-04-17T06:57:17.897Z,11.70
2023-04-17T06:59:45.762Z,11.70
2023-04-17T07:02:13.808Z,11.80
2023-04-17T07:04:41.871Z,11.90
2023-04-17T07:07:09.712Z,11.90
2023-04-17T07:09:38.978Z,11.90
2023-04-17T07:12:06.926Z,11.90
2023-04-17T07:14:35.636Z,11.90
2023-04-17T07:17:04.813Z,12.10
2023-04-17T07:19:34.166Z,12.10
2023-04-17T07:22:02.647Z,12.30
2023-04-17T07:24:34.730Z,12.40
2023-04-17T07:27:04.850Z,12.50
2023-04-17T07:29:32.686Z,12.40
2023-04-17T07:32:00.742Z,12.20
2023-04-17T07:34:31.061Z,12.20
2023-04-17T07:36:58.965Z,12.10
2023-04-17T07:39:30.512Z,12.10
2023-04-17T07:41:58.525Z,12.10
2023-04-17T07:44:27.751Z,12.20
2023-04-17T07:46:55.923Z,12.20
2023-04-17T07:49:23.862Z,12.20
2023-04-17T07:51:51.990Z,12.30
2023-04-17T07:54:19.819Z,12.40
2023-04-17T07:56:49.316Z,12.40
2023-04-17T07:59:17.554Z,12.40
2023-04-17T08:01:46.860Z,12.60
2023-04-17T08:04:14.919Z,12.70
2023-04-17T08:06:43.293Z,12.80
2023-04-17T08:09:11.568Z,13.20
2023-04-17T08:11:49.801Z,13.40
2023-04-17T08:14:23.874Z,13.60
2023-04-17T08:16:53.202Z,13.90
2023-04-17T08:19:21.178Z,14.20
2023-04-17T08:21:49.527Z,14.40
2023-04-17T08:24:19.762Z,14.40
2023-04-17T08:26:48.461Z,14.60
2023-04-17T08:29:16.574Z,14.70
2023-04-17T08:31:44.506Z,14.50
2023-04-17T08:34:15.374Z,14.80
2023-04-17T08:36:44.124Z,15.30
2023-04-17T08:39:12.920Z,15.90
2023-04-17T08:41:45.219Z,16.20
2023-04-17T08:44:13.178Z,15.90
2023-04-17T08:46:41.160Z,15.70
2023-04-17T08:49:09.070Z,15.50
2023-04-17T08:51:38.264Z,15.30
2023-04-17T08:54:06.558Z,15.00
2023-04-17T08:56:34.548Z,14.90
2023-04-17T08:59:02.445Z,15.10
2023-04-17T09:01:30.791Z,15.40
2023-04-17T09:03:58.965Z,15.50
2023-04-17T09:06:27.508Z,15.70
2023-04-17T09:08:59.017Z,15.70
2023-04-17T09:11:27.658Z,15.80
2023-04-17T09:13:56.076Z,15.80
2023-04-17T09:16:25.581Z,15.50
2023-04-17T09:19:06.505Z,15.20
2023-04-17T09:21:34.394Z,15.30
2023-04-17T09:24:05.407Z,15.30
2023-04-17T09:26:34.126Z,15.30
2023-04-17T09:29:04.671Z,15.20
2023-04-17T09:31:36.241Z,15.70
2023-04-17T09:34:05.649Z,16.30
2023-04-17T09:36:35.178Z,16.70
2023-04-17T09:39:06.119Z,16.60
2023-04-17T09:41:36.384Z,16.80
2023-04-17T09:44:06.486Z,16.60
2023-04-17T09:46:38.111Z,16.50
2023-04-17T09:49:18.741Z,16.10
2023-04-17T09:51:47.786Z,15.90
2023-04-17T09:54:18.105Z,15.50
2023-04-17T09:56:47.358Z,15.30
2023-04-17T09:59:16.155Z,15.00
2023-04-17T10:01:44.385Z,14.70
2023-04-17T10:04:13.258Z,14.50
2023-04-17T10:06:41.627Z,14.10
2023-04-17T10:09:10.073Z,14.00
2023-04-17T10:11:42.330Z,13.80
2023-04-17T10:14:14.803Z,13.80
2023-04-17T10:16:43.770Z,13.70
2023-04-17T10:19:31.430Z,13.60
2023-04-17T10:22:31.082Z,13.50
2023-04-17T10:25:20.469Z,13.50
2023-04-17T10:27:54.342Z,13.50
2023-04-17T10:30:24.034Z,13.50
2023-04-17T10:33:21.653Z,13.60
2023-04-17T10:35:50.233Z,13.40
2023-04-17T10:38:31.151Z,13.50
2023-04-17T10:41:03.728Z,13.50
2023-04-17T10:43:33.140Z,13.50
2023-04-17T10:46:05.902Z,13.40
2023-04-17T10:48:36.560Z,13.40
2023-04-17T10:51:38.212Z,13.30
2023-04-17T10:54:10.080Z,13.30
2023-04-17T10:56:39.617Z,13.30
2023-04-17T10:59:10.163Z,13.20
2023-04-17T11:01:58.253Z,13.10
2023-04-17T11:04:31.450Z,13.00
2023-04-17T11:06:59.504Z,12.90
2023-04-17T11:09:29.513Z,12.90
2023-04-17T11:12:01.333Z,12.80
2023-04-17T11:14:31.316Z,12.70
2023-04-17T11:16:59.380Z,12.70
2023-04-17T11:19:27.362Z,12.70
2023-04-17T11:21:58.839Z,12.50
2023-04-17T11:24:28.538Z,12.30
2023-04-17T11:26:57.785Z,12.10
2023-04-17T11:29:26.312Z,11.90
2023-04-17T11:31:57.374Z,11.80
2023-04-17T11:34:27.245Z,11.80
2023-04-17T11:36:57.621Z,11.60
2023-04-17T11:39:27.409Z,11.60
2023-04-17T11:41:56.887Z,11.50
2023-04-17T11:44:26.922Z,11.50
2023-04-17T11:46:58.763Z,11.60
2023-04-17T11:49:27.643Z,11.60
2023-04-17T11:51:55.632Z,11.70
2023-04-17T11:54:27.465Z,11.90
2023-04-17T11:57:06.229Z,11.90
2023-04-17T11:59:36.713Z,12.00
2023-04-17T12:02:07.481Z,12.00
2023-04-17T12:04:37.190Z,12.10
2023-04-17T12:07:06.333Z,12.10
2023-04-17T12:09:35.603Z,12.10
2023-04-17T12:14:55.367Z,12.40
2023-04-17T12:17:24.689Z,12.40
2023-04-17T12:19:52.561Z,12.40
2023-04-17T12:22:20.714Z,12.40
2023-04-17T12:24:48.582Z,12.40
2023-04-17T12:27:16.963Z,12.50
2023-04-17T12:29:45.192Z,12.60
2023-04-17T12:32:13.315Z,12.70
2023-04-17T12:34:42.639Z,12.90
2023-04-17T12:37:10.507Z,12.90
2023-04-17T12:39:38.383Z,13.10
2023-04-17T12:42:06.349Z,13.10
2023-04-17T12:44:34.192Z,13.20
2023-04-17T12:47:02.093Z,13.30
2023-04-17T12:49:29.946Z,13.50
2023-04-17T12:52:01.069Z,13.70
2023-04-17T12:54:31.051Z,14.00
2023-04-17T12:56:58.972Z,14.10
2023-04-17T12:59:26.804Z,14.20
2023-04-17T13:01:54.726Z,14.30
2023-04-17T13:04:22.798Z,14.40
2023-04-17T13:06:50.763Z,14.40
2023-04-17T13:09:19.959Z,14.40
2023-04-17T13:11:47.893Z,14.50
2023-04-17T13:14:16.024Z,14.50
2023-04-17T13:16:44.211Z,14.60
2023-04-17T13:19:12.415Z,14.60
2023-04-17T13:21:40.446Z,14.60
2023-04-17T13:24:15.365Z,14.60
2023-04-17T13:26:44.754Z,14.60
2023-04-17T13:29:12.914Z,14.60
2023-04-17T13:31:41.109Z,14.50
2023-04-17T13:34:09.166Z,14.50
2023-04-17T13:36:36.985Z,14.50
2023-04-17T13:39:05.421Z,14.40
2023-04-17T13:41:33.273Z,14.30
2023-04-17T13:44:02.434Z,14.20
2023-04-17T13:46:31.326Z,14.10
2023-04-17T13:48:59.261Z,14.00
2023-04-17T13:51:27.893Z,14.00
2023-04-17T13:53:58.452Z,13.90
2023-04-17T13:56:26.782Z,13.90
2023-04-17T13:58:54.987Z,13.80
2023-04-17T14:05:49.272Z,13.60
2023-04-17T14:08:18.563Z,13.50
2023-04-17T14:10:46.334Z,13.50
2023-04-17T14:13:14.296Z,13.50
2023-04-17T14:15:42.181Z,13.50
2023-04-17T14:18:10.885Z,13.40
2023-04-17T14:20:38.813Z,13.40
2023-04-17T14:23:06.698Z,13.50
2023-04-17T14:25:35.992Z,13.50
2023-04-17T14:28:03.849Z,13.40
2023-04-17T14:30:31.717Z,13.40
2023-04-17T14:32:59.595Z,13.40
2023-04-17T14:35:27.546Z,13.40
2023-04-17T14:37:55.551Z,13.40
2023-04-17T14:40:24.697Z,13.40
2023-04-17T14:42:54.844Z,13.30
2023-04-17T14:45:22.937Z,13.30
2023-04-17T14:47:50.839Z,13.30
2023-04-17T14:50:18.841Z,13.30
2023-04-17T14:52:46.678Z,13.30
2023-04-17T14:55:14.668Z,13.40
2023-04-17T14:57:42.515Z,13.40
2023-04-17T15:00:12.661Z,13.50
2023-04-17T15:02:40.648Z,13.50
2023-04-17T15:05:09.563Z,13.50
2023-04-17T15:07:37.468Z,13.60
2023-04-17T15:10:06.167Z,13.60
2023-04-17T15:12:34.073Z,13.70
2023-04-17T15:15:01.911Z,13.80
2023-04-17T15:17:31.191Z,13.80
2023-04-17T15:20:00.608Z,13.80
2023-04-17T15:22:28.705Z,13.80
2023-04-17T15:24:56.601Z,13.80
2023-04-17T15:27:24.412Z,13.70
2023-04-17T15:29:52.314Z,13.60
2023-04-17T15:32:20.165Z,13.60
2023-04-17T15:34:49.470Z,13.70
2023-04-17T15:37:17.306Z,13.60
2023-04-17T15:39:45.150Z,13.70
2023-04-17T15:42:13.045Z,13.70
2023-04-17T15:44:40.939Z,13.70
2023-04-17T15:47:09.965Z,13.80
2023-04-17T15:49:37.845Z,13.80
2023-04-17T15:52:07.784Z,13.70
2023-04-17T15:54:35.641Z,13.70
2023-04-17T15:57:03.478Z,13.80
2023-04-17T15:59:32.062Z,13.70
2023-04-17T16:02:00.677Z,13.80
2023-04-17T16:04:28.828Z,13.80
2023-04-17T16:06:56.757Z,13.90
2023-04-17T16:09:26.001Z,13.80
2023-04-17T16:11:54.022Z,13.80
2023-04-17T16:14:21.877Z,13.80
2023-04-17T16:16:49.700Z,13.80
2023-04-17T16:19:17.522Z,13.90
2023-04-17T16:21:45.564Z,13.80
2023-04-17T16:24:13.555Z,13.80
2023-04-17T16:26:42.783Z,13.80
2023-04-17T16:29:10.762Z,13.80
2023-04-17T16:31:38.807Z,13.80
2023-04-17T16:34:06.711Z,13.80
2023-04-17T16:36:34.562Z,13.80
2023-04-17T16:39:03.528Z,13.80
2023-04-17T16:41:31.416Z,13.80
2023-04-17T16:44:00.643Z,13.80
2023-04-17T16:46:35.503Z,13.70
2023-04-17T16:49:16.487Z,13.70
2023-04-17T16:51:44.385Z,13.70
2023-04-17T16:54:12.434Z,13.60
2023-04-17T16:56:41.932Z,13.60
2023-04-17T16:59:11.761Z,13.50
2023-04-17T17:01:39.966Z,13.50
2023-04-17T17:04:07.861Z,13.50
2023-04-17T17:06:35.785Z,13.40
2023-04-17T17:09:03.950Z,13.40
2023-04-17T17:11:31.807Z,13.30
2023-04-17T17:13:59.868Z,13.30
2023-04-17T17:16:29.225Z,13.30
2023-04-17T17:18:57.128Z,13.20
2023-04-17T17:21:25.095Z,13.20
2023-04-17T17:23:52.968Z,13.20
2023-04-17T17:26:21.006Z,13.20
2023-04-17T17:28:51.325Z,13.10
2023-04-17T17:31:19.571Z,13.10
2023-04-17T17:33:50.127Z,13.00
2023-04-17T17:36:18.382Z,13.00
2023-04-17T17:38:46.382Z,13.00
2023-04-17T17:41:14.337Z,12.90
2023-04-17T17:43:43.004Z,12.90
2023-04-17T17:46:10.943Z,12.80
2023-04-17T17:48:38.790Z,12.80
2023-04-17T17:51:08.127Z,12.80
2023-04-17T17:53:36.029Z,12.80
2023-04-17T17:56:03.877Z,12.80
2023-04-17T17:58:31.753Z,12.80
2023-04-17T18:00:59.758Z,12.70
2023-04-17T18:03:27.755Z,12.70
2023-04-17T18:05:55.687Z,12.60
2023-04-17T18:08:24.823Z,12.60
2023-04-17T18:10:52.808Z,12.50
2023-04-17T18:13:20.638Z,12.40
2023-04-17T18:15:48.522Z,12.30
2023-04-17T18:18:16.494Z,12.30
2023-04-17T18:20:44.321Z,12.30
2023-04-17T18:23:12.236Z,12.20
2023-04-17T18:25:41.545Z,12.20
2023-04-17T18:28:09.385Z,12.10
2023-04-17T18:30:37.516Z,12.10
2023-04-17T18:33:05.423Z,12.10
2023-04-17T18:35:33.389Z,12.10
2023-04-17T18:38:01.255Z,12.00
2023-04-17T18:40:30.628Z,12.10
2023-04-17T18:43:00.257Z,12.00
2023-04-17T18:45:28.248Z,12.00
2023-04-17T18:47:56.370Z,12.00
2023-04-17T18:50:24.445Z,12.00
2023-04-17T18:52:52.295Z,11.90
2023-04-17T18:55:20.258Z,11.90
2023-04-17T18:57:48.096Z,11.90
2023-04-17T19:00:17.936Z,11.90
2023-04-17T19:02:46.590Z,11.90
2023-04-17T19:05:14.810Z,11.90
2023-04-17T19:07:42.976Z,11.90
2023-04-17T19:10:11.749Z,11.80
2023-04-17T19:12:39.674Z,11.80
2023-04-17T19:15:09.060Z,11.80
2023-04-17T19:17:38.511Z,11.80
2023-04-17T19:20:07.721Z,11.80
2023-04-17T19:22:35.618Z,11.70
2023-04-17T19:25:03.659Z,11.70
2023-04-17T19:27:31.696Z,11.70
2023-04-17T19:29:59.846Z,11.60
2023-04-17T19:32:28.942Z,11.60
2023-04-17T19:34:59.450Z,11.60
2023-04-17T19:37:27.337Z,11.50
2023-04-17T19:39:56.683Z,11.60
2023-04-17T19:42:24.926Z,11.50
2023-04-17T19:44:52.875Z,11.50
2023-04-17T19:47:20.746Z,11.50
2023-04-17T19:49:48.712Z,11.50
2023-04-17T19:52:17.924Z,11.50
2023-04-17T19:54:46.252Z,11.50
2023-04-17T19:57:14.589Z,11.50
2023-04-17T19:59:42.551Z,11.50
2023-04-17T20:02:11.831Z,11.40
2023-04-17T20:04:39.717Z,11.40
2023-04-17T20:07:07.552Z,11.40
2023-04-17T20:09:36.741Z,11.50
2023-04-17T20:12:04.923Z,11.50
2023-04-17T20:14:32.808Z,11.40
2023-04-17T20:17:01.079Z,11.40
2023-04-17T20:19:29.351Z,11.40
2023-04-17T20:21:57.164Z,11.40
2023-04-17T20:24:25.158Z,11.40
2023-04-17T20:26:54.370Z,11.30
2023-04-17T20:29:23.127Z,11.30
2023-04-17T20:31:51.369Z,11.30
2023-04-17T20:34:19.381Z,11.30
2023-04-17T20:36:47.171Z,11.20
2023-04-17T20:39:15.581Z,11.20
2023-04-17T20:41:43.784Z,11.20
2023-04-17T20:44:13.363Z,11.20
2023-04-17T20:46:41.429Z,11.20
2023-04-17T20:49:09.376Z,11.20
2023-04-17T20:51:37.291Z,11.10
2023-04-17T20:54:05.413Z,11.10
2023-04-17T20:56:33.228Z,11.10
2023-04-17T20:59:01.118Z,11.10
2023-04-17T21:01:30.396Z,11.00
2023-04-17T21:06:26.886Z,11.00
2023-04-17T21:08:55.197Z,11.00
2023-04-17T21:11:23.393Z,11.00
2023-04-17T21:13:51.217Z,11.00
2023-04-17T21:16:19.141Z,11.00
2023-04-17T21:18:48.633Z,10.90
2023-04-17T21:21:16.465Z,10.90
2023-04-17T21:23:44.360Z,10.90
2023-04-17T21:26:12.229Z,10.90
2023-04-17T21:28:40.280Z,10.80
2023-04-17T21:31:10.225Z,10.80
2023-04-17T21:33:38.258Z,10.90
2023-04-17T21:36:08.230Z,10.80
2023-04-17T21:38:36.169Z,10.70
2023-04-17T21:41:04.186Z,10.70
2023-04-17T21:43:32.275Z,10.70
2023-04-17T21:46:00.279Z,10.70
2023-04-17T21:48:28.176Z,10.70
2023-04-17T21:51:01.492Z,10.60
2023-04-17T21:53:30.889Z,10.60
2023-04-17T21:55:58.732Z,10.60
2023-04-17T21:58:26.633Z,10.60
2023-04-17T22:00:55.459Z,10.60
2023-04-17T22:03:23.687Z,10.60
2023-04-17T22:05:53.699Z,10.60
2023-04-17T22:08:21.554Z,10.60
2023-04-17T22:10:51.275Z,10.50
2023-04-17T22:13:19.175Z,10.50
2023-04-17T22:15:49.281Z,10.50
2023-04-17T22:18:17.202Z,10.50
2023-04-17T22:20:45.326Z,10.50
2023-04-17T22:23:13.183Z,10.50
2023-04-17T22:25:41.094Z,10.50
2023-04-17T22:28:10.543Z,10.50
2023-04-17T22:30:38.424Z,10.50
2023-04-17T22:33:06.310Z,10.40
2023-04-17T22:35:34.176Z,10.40
2023-04-17T22:38:02.026Z,10.40
2023-04-17T22:40:30.895Z,10.40
2023-04-17T22:42:59.284Z,10.40
2023-04-17T22:45:28.546Z,10.40
2023-04-17T22:47:56.372Z,10.40
2023-04-17T22:50:24.265Z,10.40
2023-04-17T22:52:52.089Z,10.40
2023-04-17T22:55:20.152Z,10.40
2023-04-17T22:57:47.955Z,10.40
2023-04-17T23:00:19.834Z,10.30
2023-04-17T23:02:49.091Z,10.20
2023-04-17T23:05:17.246Z,10.30
2023-04-17T23:07:45.210Z,10.30
2023-04-17T23:10:13.108Z,10.20
2023-04-17T23:12:40.983Z,10.20
2023-04-17T23:15:10.258Z,10.20
2023-04-17T23:17:38.118Z,10.20
2023-04-17T23:20:08.487Z,10.20
2023-04-17T23:22:36.491Z,10.10
2023-04-17T23:25:04.671Z,10.10
2023-04-17T23:27:32.630Z,10.10
2023-04-17T23:30:00.711Z,10.10
2023-04-17T23:32:28.732Z,10.10
2023-04-17T23:34:56.573Z,10.10
2023-04-17T23:37:25.806Z,10.10
2023-04-17T23:39:53.770Z,10.10
2023-04-17T23:42:21.851Z,10.10
2023-04-17T23:44:49.690Z,10.10
2023-04-17T23:47:17.598Z,10.00
2023-04-17T23:49:45.471Z,10.00
2023-04-17T23:52:13.296Z,10.00
2023-04-17T23:54:42.477Z,10.00
2023-04-17T23:57:10.542Z,9.90
2023-04-17T23:59:38.406Z,9.90
